createdAt,value
2018-05-26T00:01:20.762Z,67.30
2018-05-26T00:03:49.770Z,61.20
2018-05-26T00:06:18.780Z,65.70
2018-05-26T00:08:46.981Z,65.50
2018-05-26T00:11:15.216Z,64.20
2018-05-26T00:13:43.436Z,66.40
2018-05-26T00:16:11.669Z,65.00
2018-05-26T00:18:39.929Z,62.30
2018-05-26T00:21:08.937Z,62.90
2018-05-26T00:23:37.949Z,64.30
2018-05-26T00:26:06.211Z,64.20
2018-05-26T00:28:34.449Z,62.30
2018-05-26T00:31:02.768Z,62.60
2018-05-26T00:33:30.969Z,63.30
2018-05-26T00:35:59.180Z,63.60
2018-05-26T00:38:27.414Z,66.30
2018-05-26T00:40:55.669Z,66.60
2018-05-26T00:43:23.899Z,63.20
2018-05-26T00:45:52.120Z,68.30
2018-05-26T00:48:21.841Z,63.30
2018-05-26T00:50:50.834Z,64.90
2018-05-26T00:53:19.061Z,65.10
2018-05-26T00:55:47.281Z,66.80
2018-05-26T00:58:15.503Z,67.70
2018-05-26T01:00:43.728Z,65.80
2018-05-26T01:03:11.978Z,64.00
2018-05-26T01:05:40.195Z,64.40
2018-05-26T01:08:08.429Z,62.60
2018-05-26T01:10:36.648Z,65.40
2018-05-26T01:13:05.680Z,63.30
2018-05-26T01:15:33.888Z,63.20
2018-05-26T01:18:02.128Z,69.70
2018-05-26T01:20:31.137Z,63.30
2018-05-26T01:23:01.074Z,64.90
2018-05-26T01:25:30.061Z,62.60
2018-05-26T01:27:58.281Z,62.50
2018-05-26T01:30:26.510Z,65.90
2018-05-26T01:32:54.734Z,64.40
2018-05-26T01:35:23.732Z,63.50
2018-05-26T01:37:51.953Z,63.50
2018-05-26T01:40:20.198Z,63.50
2018-05-26T01:42:48.429Z,65.70
2018-05-26T01:45:16.665Z,65.70
2018-05-26T01:47:44.956Z,65.70
2018-05-26T01:50:13.196Z,65.10
2018-05-26T01:52:41.430Z,68.20
2018-05-26T01:55:09.652Z,66.20
2018-05-26T01:57:38.700Z,66.60
2018-05-26T02:00:06.928Z,66.60
2018-05-26T02:02:35.928Z,65.00
2018-05-26T02:05:04.149Z,64.90
2018-05-26T02:07:32.373Z,69.30
2018-05-26T02:10:00.598Z,69.80
2018-05-26T02:12:28.821Z,67.30
2018-05-26T02:14:57.043Z,65.10
2018-05-26T02:17:26.800Z,66.40
2018-05-26T02:19:55.793Z,66.70
2018-05-26T02:22:24.021Z,66.70
2018-05-26T02:24:52.282Z,68.30
2018-05-26T02:27:21.294Z,66.00
2018-05-26T02:29:49.514Z,66.00
2018-05-26T02:32:17.744Z,66.10
2018-05-26T02:34:45.985Z,65.50
2018-05-26T02:37:14.245Z,65.80
2018-05-26T02:39:42.458Z,68.60
2018-05-26T02:42:10.694Z,66.60
2018-05-26T02:44:38.939Z,68.70
2018-05-26T02:47:07.237Z,65.10
2018-05-26T02:49:36.214Z,67.00
2018-05-26T02:52:05.234Z,66.40
2018-05-26T02:54:33.477Z,66.50
2018-05-26T02:57:01.699Z,64.50
2018-05-26T02:59:29.924Z,66.50
2018-05-26T03:01:58.195Z,66.80
2018-05-26T03:04:32.145Z,68.40
2018-05-26T03:07:06.123Z,68.60
2018-05-26T03:09:40.133Z,68.80
2018-05-26T03:12:14.975Z,68.80
2018-05-26T03:14:47.384Z,68.90
2018-05-26T03:17:34.427Z,68.80
2018-05-26T03:20:04.770Z,69.10
2018-05-26T03:22:32.986Z,69.50
2018-05-26T03:25:01.216Z,69.80
2018-05-26T03:27:30.224Z,69.30
2018-05-26T03:29:58.452Z,68.30
2018-05-26T03:32:26.673Z,68.20
2018-05-26T03:34:54.907Z,68.30
2018-05-26T03:37:23.534Z,70.50
2018-05-26T03:39:51.745Z,68.30
2018-05-26T03:42:19.965Z,69.10
2018-05-26T03:44:48.959Z,70.00
2018-05-26T03:47:17.944Z,70.20
2018-05-26T03:49:46.188Z,70.10
2018-05-26T03:52:14.409Z,70.30
2018-05-26T04:08:16.202Z,69.10
2018-05-26T04:10:44.435Z,67.10
2018-05-26T04:13:12.651Z,68.40
2018-05-26T04:15:41.666Z,69.40
2018-05-26T04:18:09.897Z,70.20
2018-05-26T04:20:38.131Z,72.60
2018-05-26T04:23:07.129Z,71.80
2018-05-26T04:25:36.113Z,71.50
2018-05-26T04:28:04.362Z,71.40
2018-05-26T04:30:32.561Z,65.50
2018-05-26T04:33:00.780Z,68.00
2018-05-26T04:35:29.011Z,68.30
2018-05-26T04:37:57.994Z,67.10
2018-05-26T04:40:27.001Z,67.60
2018-05-26T04:42:55.206Z,67.50
2018-05-26T04:45:23.437Z,68.10
2018-05-26T04:47:51.657Z,67.90
2018-05-26T04:50:19.909Z,69.10
2018-05-26T04:52:48.115Z,66.90
2018-05-26T04:55:16.349Z,68.30
2018-05-26T04:57:45.333Z,69.70
2018-05-26T05:00:14.341Z,70.50
2018-05-26T05:02:43.325Z,66.20
2018-05-26T05:05:11.545Z,66.20
2018-05-26T05:07:40.541Z,71.50
2018-05-26T05:10:09.523Z,67.20
2018-05-26T05:12:37.757Z,67.20
2018-05-26T05:15:05.984Z,70.70
2018-05-26T05:17:34.201Z,70.50
2018-05-26T05:20:03.206Z,70.70
2018-05-26T05:22:32.197Z,70.60
2018-05-26T05:25:00.413Z,70.60
2018-05-26T05:27:29.396Z,70.50
2018-05-26T05:29:57.620Z,70.50
2018-05-26T05:32:25.831Z,65.80
2018-05-26T05:34:54.048Z,66.70
2018-05-26T05:37:22.268Z,72.30
2018-05-26T05:39:51.273Z,70.20
2018-05-26T05:42:20.265Z,71.20
2018-05-26T05:44:49.250Z,71.20
2018-05-26T05:47:17.470Z,70.90
2018-05-26T05:49:46.449Z,68.50
2018-05-26T05:52:14.682Z,68.30
2018-05-26T05:54:42.896Z,71.20
2018-05-26T05:57:11.134Z,70.20
2018-05-26T05:59:40.124Z,70.30
2018-05-26T06:02:08.420Z,70.30
2018-05-26T06:04:37.416Z,70.90
2018-05-26T06:07:06.056Z,70.50
2018-05-26T06:09:34.260Z,70.60
2018-05-26T06:12:02.482Z,70.50
2018-05-26T06:14:30.693Z,67.50
2018-05-26T06:16:59.686Z,70.80
2018-05-26T06:19:27.901Z,70.70
2018-05-26T06:21:57.629Z,70.30
2018-05-26T06:24:25.848Z,70.30
2018-05-26T06:26:54.071Z,70.30
2018-05-26T06:29:22.297Z,68.90
2018-05-26T06:31:50.527Z,67.30
2018-05-26T06:34:18.749Z,68.90
2018-05-26T06:36:46.957Z,69.60
2018-05-26T06:39:15.179Z,72.60
2018-05-26T06:41:43.424Z,69.00
2018-05-26T06:44:11.612Z,70.60
2018-05-26T06:46:40.629Z,70.40
2018-05-26T06:49:09.641Z,68.20
2018-05-26T06:51:38.635Z,68.60
2018-05-26T06:54:06.929Z,68.40
2018-05-26T06:56:36.208Z,68.40
2018-05-26T06:59:04.422Z,69.50
2018-05-26T07:01:32.638Z,70.00
2018-05-26T07:04:00.893Z,72.00
2018-05-26T07:06:29.855Z,70.90
2018-05-26T07:08:58.085Z,70.90
2018-05-26T07:11:27.059Z,70.40
2018-05-26T07:13:55.285Z,70.20
2018-05-26T07:16:23.505Z,68.80
2018-05-26T07:18:51.720Z,70.10
2018-05-26T07:21:19.967Z,70.80
2018-05-26T07:23:48.973Z,70.60
2018-05-26T07:26:17.177Z,70.50
2018-05-26T07:28:45.451Z,70.80
2018-05-26T07:31:13.737Z,70.80
2018-05-26T07:33:42.062Z,68.00
2018-05-26T07:36:11.182Z,67.30
2018-05-26T07:38:39.442Z,67.10
2018-05-26T07:41:07.679Z,70.10
2018-05-26T07:43:35.957Z,70.20
2018-05-26T07:46:04.215Z,70.40
2018-05-26T07:48:32.437Z,70.50
2018-05-26T07:51:00.677Z,70.80
2018-05-26T07:53:28.996Z,71.60
2018-05-26T07:55:57.210Z,70.90
2018-05-26T07:58:26.654Z,69.00
2018-05-26T08:00:54.842Z,68.90
2018-05-26T08:03:23.820Z,70.80
2018-05-26T08:05:52.804Z,70.70
2018-05-26T08:08:21.037Z,70.60
2018-05-26T08:10:49.314Z,68.40
2018-05-26T08:13:17.486Z,70.40
2018-05-26T08:15:46.483Z,70.50
2018-05-26T08:18:15.495Z,70.40
2018-05-26T08:20:44.776Z,71.20
2018-05-26T08:23:13.033Z,70.40
2018-05-26T08:25:41.292Z,70.30
2018-05-26T08:28:09.565Z,70.70
2018-05-26T08:30:37.849Z,70.80
2018-05-26T08:33:06.126Z,71.10
2018-05-26T08:35:40.686Z,71.00
2018-05-26T08:38:10.606Z,70.80
2018-05-26T08:40:38.831Z,70.80
2018-05-26T08:43:07.076Z,70.30
2018-05-26T08:45:35.346Z,70.70
2018-05-26T08:48:03.619Z,71.60
2018-05-26T08:50:31.849Z,70.80
2018-05-26T08:53:00.069Z,70.90
2018-05-26T08:55:28.277Z,71.00
2018-05-26T08:57:56.497Z,69.80
2018-05-26T09:00:25.481Z,69.70
2018-05-26T09:02:53.721Z,69.70
2018-05-26T09:05:22.701Z,67.70
2018-05-26T09:07:50.939Z,67.60
2018-05-26T09:10:19.188Z,68.30
2018-05-26T09:12:47.411Z,69.00
2018-05-26T09:15:15.621Z,67.60
2018-05-26T09:17:43.858Z,66.80
2018-05-26T09:20:12.073Z,66.80
2018-05-26T09:22:40.338Z,64.90
2018-05-26T09:25:09.335Z,62.80
2018-05-26T09:27:37.608Z,62.70
2018-05-26T09:30:06.124Z,62.60
2018-05-26T09:32:34.336Z,60.90
2018-05-26T09:35:02.553Z,62.20
2018-05-26T09:37:31.553Z,61.90
2018-05-26T09:39:59.786Z,62.00
2018-05-26T09:42:27.993Z,62.30
2018-05-26T09:44:57.049Z,60.30
2018-05-26T09:47:25.288Z,60.20
2018-05-26T09:49:53.504Z,60.70
2018-05-26T09:52:21.783Z,59.70
2018-05-26T09:54:50.825Z,59.40
2018-05-26T09:57:19.126Z,59.40
2018-05-26T09:59:47.361Z,60.40
2018-05-26T10:02:15.648Z,62.10
2018-05-26T10:04:44.645Z,62.10
2018-05-26T10:07:13.665Z,62.70
2018-05-26T10:09:44.360Z,62.60
2018-05-26T10:12:12.737Z,59.00
2018-05-26T10:14:40.976Z,63.20
2018-05-26T10:17:10.003Z,66.50
2018-05-26T10:19:38.268Z,66.40
2018-05-26T10:22:07.431Z,61.90
2018-05-26T10:24:36.830Z,58.60
2018-05-26T10:27:06.057Z,58.50
2018-05-26T10:29:35.576Z,57.90
2018-05-26T10:32:03.764Z,57.50
2018-05-26T10:34:32.002Z,57.00
2018-05-26T10:37:00.301Z,56.50
2018-05-26T10:39:30.006Z,61.60
2018-05-26T10:41:59.009Z,59.80
2018-05-26T10:44:28.845Z,61.40
2018-05-26T10:46:57.093Z,61.40
2018-05-26T10:49:25.383Z,65.30
2018-05-26T10:51:53.557Z,66.20
2018-05-26T10:54:21.849Z,65.30
2018-05-26T10:56:50.106Z,57.80
2018-05-26T10:59:18.314Z,56.40
2018-05-26T11:01:46.661Z,53.70
2018-05-26T11:04:15.679Z,57.20
2018-05-26T11:06:47.298Z,57.10
2018-05-26T11:09:15.508Z,57.10
2018-05-26T11:11:44.512Z,53.20
2018-05-26T11:14:12.724Z,53.30
2018-05-26T11:16:40.952Z,52.90
2018-05-26T11:19:09.301Z,58.00
2018-05-26T11:21:38.319Z,56.10
2018-05-26T11:24:06.847Z,56.10
2018-05-26T11:26:34.942Z,57.10
2018-05-26T11:29:03.176Z,51.00
2018-05-26T11:31:31.365Z,55.30
2018-05-26T11:33:59.609Z,52.90
2018-05-26T11:36:27.849Z,52.30
2018-05-26T11:38:56.101Z,57.20
2018-05-26T11:41:25.086Z,54.90
2018-05-26T11:43:53.325Z,54.90
2018-05-26T11:46:21.554Z,54.10
2018-05-26T11:48:49.765Z,51.90
2018-05-26T11:51:18.041Z,54.50
2018-05-26T11:53:46.281Z,59.80
2018-05-26T11:56:14.597Z,62.70
2018-05-26T11:58:42.817Z,64.00
2018-05-26T12:01:11.087Z,61.60
2018-05-26T12:03:39.342Z,62.70
2018-05-26T12:06:07.570Z,58.40
2018-05-26T12:08:35.841Z,63.30
2018-05-26T12:11:04.866Z,55.60
2018-05-26T12:13:33.080Z,55.70
2018-05-26T12:16:02.077Z,55.00
2018-05-26T12:18:30.285Z,55.00
2018-05-26T12:20:58.511Z,52.40
2018-05-26T12:23:27.645Z,58.30
2018-05-26T12:25:55.858Z,63.00
2018-05-26T12:28:24.853Z,64.10
2018-05-26T12:30:53.070Z,64.00
2018-05-26T12:33:21.281Z,65.50
2018-05-26T12:35:49.557Z,66.30
2018-05-26T12:38:17.771Z,67.40
2018-05-26T12:40:46.004Z,68.60
2018-05-26T12:43:14.994Z,67.50
2018-05-26T12:45:44.011Z,63.10
2018-05-26T12:48:13.020Z,64.90
2018-05-26T12:50:42.009Z,65.10
2018-05-26T12:53:10.222Z,65.00
2018-05-26T12:55:39.245Z,58.90
2018-05-26T12:58:08.415Z,56.00
2018-05-26T13:00:37.533Z,56.40
2018-05-26T13:03:06.509Z,59.30
2018-05-26T13:05:34.726Z,59.20
2018-05-26T13:08:03.718Z,65.00
2018-05-26T13:10:32.013Z,65.00
2018-05-26T13:13:01.031Z,68.30
2018-05-26T13:15:30.025Z,69.70
2018-05-26T13:17:58.229Z,69.60
2018-05-26T13:20:27.325Z,68.50
2018-05-26T13:22:56.336Z,68.40
2018-05-26T13:25:25.356Z,67.00
2018-05-26T13:27:53.629Z,66.90
2018-05-26T13:30:22.612Z,64.30
2018-05-26T13:32:51.083Z,64.30
2018-05-26T13:35:19.343Z,66.10
2018-05-26T13:37:48.329Z,66.70
2018-05-26T13:40:17.336Z,67.20
2018-05-26T13:42:46.344Z,66.70
2018-05-26T13:45:15.413Z,66.00
2018-05-26T13:47:43.637Z,65.90
2018-05-26T13:50:12.651Z,63.20
2018-05-26T13:52:41.780Z,64.90
2018-05-26T13:55:09.982Z,64.80
2018-05-26T13:57:38.252Z,63.00
2018-05-26T14:00:06.529Z,62.80
2018-05-26T14:02:34.974Z,64.10
2018-05-26T14:05:03.290Z,62.70
2018-05-26T14:07:32.271Z,63.20
2018-05-26T14:10:00.505Z,63.00
2018-05-26T14:12:28.810Z,56.20
2018-05-26T14:14:57.757Z,64.00
2018-05-26T14:17:26.081Z,63.90
2018-05-26T14:19:55.077Z,62.80
2018-05-26T14:22:24.060Z,59.90
2018-05-26T14:24:52.280Z,60.60
2018-05-26T14:27:21.273Z,58.70
2018-05-26T14:29:50.250Z,59.00
2018-05-26T14:32:18.493Z,59.10
2018-05-26T14:34:46.804Z,64.10
2018-05-26T14:37:15.026Z,59.70
2018-05-26T14:39:43.252Z,58.10
2018-05-26T14:42:11.519Z,58.40
2018-05-26T14:44:39.722Z,55.00
2018-05-26T14:47:08.721Z,63.50
2018-05-26T14:49:37.702Z,58.20
2018-05-26T14:52:05.990Z,58.00
2018-05-26T14:54:34.170Z,57.40
2018-05-26T14:57:02.502Z,55.50
2018-05-26T14:59:31.489Z,59.50
2018-05-26T15:02:00.475Z,61.30
2018-05-26T15:04:28.697Z,61.20
2018-05-26T15:06:57.685Z,64.30
2018-05-26T15:09:25.896Z,64.30
2018-05-26T15:11:54.126Z,59.80
2018-05-26T15:14:22.339Z,62.80
2018-05-26T15:16:50.569Z,58.90
2018-05-26T15:19:18.805Z,61.10
2018-05-26T15:21:47.112Z,59.20
2018-05-26T15:24:15.555Z,62.10
2018-05-26T15:26:43.788Z,64.90
2018-05-26T15:29:12.071Z,64.70
2018-05-26T15:31:40.293Z,63.90
2018-05-26T15:34:08.559Z,65.20
2018-05-26T15:36:37.552Z,60.10
2018-05-26T15:39:05.834Z,60.10
2018-05-26T15:41:34.041Z,59.50
2018-05-26T15:44:03.025Z,62.80
2018-05-26T15:46:31.311Z,62.60
2018-05-26T15:48:59.524Z,65.10
2018-05-26T15:51:27.734Z,62.50
2018-05-26T15:53:55.973Z,66.20
2018-05-26T15:56:24.193Z,68.00
2018-05-26T15:58:53.172Z,69.50
2018-05-26T16:01:21.413Z,69.60
2018-05-26T16:03:49.649Z,69.60
2018-05-26T16:06:17.917Z,69.50
2018-05-26T16:08:46.141Z,70.30
2018-05-26T16:11:14.369Z,70.70
2018-05-26T16:13:42.582Z,71.00
2018-05-26T16:16:10.808Z,71.20
2018-05-26T16:18:39.093Z,71.60
2018-05-26T16:21:07.329Z,71.60
2018-05-26T16:23:35.550Z,71.50
2018-05-26T16:26:03.864Z,71.40
2018-05-26T16:28:32.866Z,71.50
2018-05-26T16:31:01.073Z,71.40
2018-05-26T16:33:30.062Z,72.00
2018-05-26T16:35:59.136Z,71.70
2018-05-26T16:38:28.151Z,72.20
2018-05-26T16:40:56.469Z,72.20
2018-05-26T16:43:24.944Z,72.10
2018-05-26T16:45:53.163Z,72.00
2018-05-26T16:48:22.166Z,71.90
2018-05-26T16:50:51.143Z,71.60
2018-05-26T16:53:19.489Z,71.60
2018-05-26T16:55:47.701Z,71.60
2018-05-26T16:58:15.937Z,71.50
2018-05-26T17:00:44.928Z,71.50
2018-05-26T17:03:13.948Z,71.80
2018-05-26T17:05:42.971Z,71.90
2018-05-26T17:08:12.795Z,71.90
2018-05-26T17:10:41.788Z,72.20
2018-05-26T17:13:10.944Z,72.30
2018-05-26T17:15:39.151Z,72.20
2018-05-26T17:18:07.365Z,71.90
2018-05-26T17:20:36.363Z,71.50
2018-05-26T17:23:05.342Z,72.00
2018-05-26T17:25:33.659Z,72.00
2018-05-26T17:28:01.879Z,71.90
2018-05-26T17:30:30.089Z,71.60
2018-05-26T17:32:58.323Z,71.50
2018-05-26T17:35:27.345Z,71.90
2018-05-26T17:37:56.345Z,71.80
2018-05-26T17:40:25.333Z,71.70
2018-05-26T17:42:53.558Z,71.70
2018-05-26T17:45:21.829Z,72.00
2018-05-26T17:47:50.820Z,72.30
2018-05-26T17:50:19.828Z,72.70
2018-05-26T17:52:48.815Z,72.40
2018-05-26T17:55:17.123Z,72.30
2018-05-26T17:57:46.117Z,72.00
2018-05-26T18:00:15.106Z,71.90
2018-05-26T18:02:43.321Z,72.00
2018-05-26T18:05:12.311Z,72.10
2018-05-26T18:07:40.548Z,71.90
2018-05-26T18:10:08.835Z,71.60
2018-05-26T18:12:37.070Z,71.80
2018-05-26T18:15:05.505Z,72.10
2018-05-26T18:17:34.494Z,72.10
2018-05-26T18:20:03.489Z,73.10
2018-05-26T18:22:31.709Z,72.30
2018-05-26T18:24:59.973Z,72.30
2018-05-26T18:27:28.267Z,72.20
2018-05-26T18:29:57.290Z,72.10
2018-05-26T18:32:25.548Z,72.00
2018-05-26T18:34:53.773Z,72.10
2018-05-26T18:37:22.008Z,72.40
2018-05-26T18:39:50.221Z,71.90
2018-05-26T18:42:19.217Z,72.30
2018-05-26T18:44:47.441Z,72.10
2018-05-26T18:47:15.696Z,72.00
2018-05-26T18:49:43.918Z,71.80
2018-05-26T18:52:12.134Z,68.00
2018-05-26T18:54:40.397Z,71.40
2018-05-26T18:57:08.670Z,71.50
2018-05-26T18:59:37.668Z,71.80
2018-05-26T19:02:06.685Z,71.70
2018-05-26T19:04:34.954Z,71.80
2018-05-26T19:07:04.040Z,70.40
2018-05-26T19:09:32.270Z,70.90
2018-05-26T19:12:01.236Z,70.60
2018-05-26T19:14:30.984Z,70.80
2018-05-26T19:16:59.977Z,71.20
2018-05-26T19:19:28.192Z,71.20
2018-05-26T19:21:56.417Z,71.40
2018-05-26T19:24:24.631Z,71.20
2018-05-26T19:26:52.941Z,71.20
2018-05-26T19:29:21.940Z,71.10
2018-05-26T19:31:50.955Z,71.10
2018-05-26T19:34:19.953Z,71.20
2018-05-26T19:36:48.946Z,71.40
2018-05-26T19:39:17.248Z,71.30
2018-05-26T19:41:46.256Z,71.20
2018-05-26T19:44:15.237Z,70.30
2018-05-26T19:46:43.586Z,70.20
2018-05-26T19:49:11.811Z,70.60
2018-05-26T19:51:40.037Z,70.40
2018-05-26T19:54:09.049Z,70.10
2018-05-26T19:56:37.360Z,70.20
2018-05-26T19:59:05.570Z,69.90
2018-05-26T20:01:33.810Z,70.00
2018-05-26T20:04:02.785Z,70.50
2018-05-26T20:06:31.015Z,70.50
2018-05-26T20:08:59.238Z,70.50
2018-05-26T20:11:27.442Z,70.50
2018-05-26T20:13:55.684Z,70.50
2018-05-26T20:16:23.893Z,70.80
2018-05-26T20:18:52.120Z,70.50
2018-05-26T20:21:20.413Z,70.60
2018-05-26T20:23:49.395Z,70.40
2018-05-26T20:26:17.615Z,70.60
2018-05-26T20:28:46.617Z,68.40
2018-05-26T20:31:16.043Z,70.50
2018-05-26T20:33:44.229Z,69.70
2018-05-26T20:36:13.233Z,69.90
2018-05-26T20:38:42.235Z,67.80
2018-05-26T20:41:10.465Z,67.90
2018-05-26T20:43:38.705Z,69.60
2018-05-26T20:46:07.017Z,69.80
2018-05-26T20:48:35.228Z,69.70
2018-05-26T20:51:03.442Z,69.70
2018-05-26T20:53:31.680Z,70.10
2018-05-26T20:56:00.656Z,70.40
2018-05-26T20:58:28.953Z,70.30
2018-05-26T21:00:57.941Z,71.30
2018-05-26T21:03:26.301Z,71.30
2018-05-26T21:05:54.525Z,70.50
2018-05-26T21:08:22.753Z,67.90
2018-05-26T21:10:51.004Z,70.60
2018-05-26T21:13:19.205Z,70.90
2018-05-26T21:15:48.212Z,69.90
2018-05-26T21:18:17.209Z,70.90
2018-05-26T21:20:45.418Z,70.90
2018-05-26T21:23:13.645Z,70.90
2018-05-26T21:25:41.861Z,70.60
2018-05-26T21:28:10.088Z,70.50
2018-05-26T21:30:38.305Z,70.60
2018-05-26T21:33:06.542Z,70.90
2018-05-26T21:35:35.523Z,71.20
2018-05-26T21:38:04.545Z,70.00
2018-05-26T21:40:32.757Z,70.40
2018-05-26T21:43:01.045Z,70.00
2018-05-26T21:45:30.050Z,70.00
2018-05-26T21:47:59.136Z,69.50
2018-05-26T21:50:27.446Z,69.60
2018-05-26T21:52:56.553Z,70.00
2018-05-26T21:55:25.554Z,64.70
2018-05-26T21:57:54.664Z,69.80
2018-05-26T22:00:23.634Z,68.80
2018-05-26T22:02:51.853Z,69.40
2018-05-26T22:05:20.841Z,69.70
2018-05-26T22:07:50.578Z,69.00
2018-05-26T22:10:19.558Z,67.00
2018-05-26T22:12:47.885Z,66.90
2018-05-26T22:15:16.889Z,66.20
2018-05-26T22:17:45.982Z,67.90
2018-05-26T22:20:14.189Z,68.00
2018-05-26T22:22:42.470Z,69.90
2018-05-26T22:25:11.467Z,68.90
2018-05-26T22:27:39.701Z,68.90
2018-05-26T22:30:07.951Z,67.50
2018-05-26T22:32:36.173Z,68.10
2018-05-26T22:35:04.417Z,68.20
2018-05-26T22:37:32.709Z,64.20
2018-05-26T22:40:01.713Z,67.40
2018-05-26T22:42:30.008Z,67.40
2018-05-26T22:44:58.985Z,64.60
2018-05-26T22:47:27.203Z,64.40
2018-05-26T22:49:56.202Z,69.50
2018-05-26T22:52:25.294Z,70.30
2018-05-26T22:54:53.517Z,70.00
2018-05-26T22:57:21.801Z,69.80
2018-05-26T22:59:50.786Z,68.90
2018-05-26T23:02:19.109Z,68.90
2018-05-26T23:04:47.332Z,67.10
2018-05-26T23:07:15.683Z,65.00
2018-05-26T23:09:44.660Z,69.40
2018-05-26T23:12:12.926Z,69.40
2018-05-26T23:14:41.161Z,65.90
2018-05-26T23:17:10.151Z,63.00
2018-05-26T23:19:39.143Z,63.70
2018-05-26T23:22:08.066Z,63.60
2018-05-26T23:24:37.078Z,64.80
2018-05-26T23:27:06.069Z,65.20
2018-05-26T23:29:35.051Z,64.80
2018-05-26T23:32:03.278Z,64.80
2018-05-26T23:34:31.497Z,65.10
2018-05-26T23:36:59.724Z,65.60
2018-05-26T23:39:27.941Z,65.60
2018-05-26T23:41:56.945Z,65.20
2018-05-26T23:44:25.924Z,65.80
2018-05-26T23:46:54.133Z,65.80
2018-05-26T23:49:23.146Z,66.00
2018-05-26T23:51:52.142Z,64.50
2018-05-26T23:54:21.148Z,65.60
2018-05-26T23:56:50.149Z,69.50
2018-05-26T23:59:19.156Z,69.30
